createdAt,value
2019-04-23T00:00:24.012Z,53.00
2019-04-23T00:08:07.567Z,52.80
2019-04-23T00:10:28.714Z,52.70
2019-04-23T00:12:58.878Z,52.90
2019-04-23T00:15:55.285Z,52.70
2019-04-23T00:18:22.749Z,52.80
2019-04-23T00:20:47.922Z,52.70
2019-04-23T00:23:20.762Z,53.50
2019-04-23T00:26:13.740Z,52.80
2019-04-23T00:28:27.382Z,52.70
2019-04-23T00:31:15.238Z,52.70
2019-04-23T00:33:34.568Z,52.70
2019-04-23T00:36:10.628Z,52.60
2019-04-23T00:41:01.203Z,52.60
2019-04-23T00:43:27.089Z,52.50
2019-04-23T00:45:55.209Z,52.50
2019-04-23T00:53:32.751Z,52.30
2019-04-23T00:58:38.275Z,52.00
2019-04-23T01:01:08.570Z,52.10
2019-04-23T01:03:25.387Z,51.90
2019-04-23T01:05:59.145Z,51.70
2019-04-23T01:08:31.822Z,51.60
2019-04-23T01:11:01.920Z,51.50
2019-04-23T01:13:39.575Z,51.40
2019-04-23T01:16:08.956Z,51.30
2019-04-23T01:18:46.791Z,51.10
2019-04-23T01:20:54.042Z,50.80
2019-04-23T01:23:20.636Z,51.10
2019-04-23T01:25:59.032Z,50.40
2019-04-23T01:28:50.258Z,50.20
2019-04-23T01:33:51.444Z,50.00
2019-04-23T01:36:21.761Z,50.00
2019-04-23T01:38:55.994Z,50.00
2019-04-23T01:41:25.268Z,50.00
2019-04-23T01:43:47.837Z,50.00
2019-04-23T01:46:25.380Z,49.80
2019-04-23T01:51:20.082Z,49.60
2019-04-23T01:53:45.797Z,49.60
2019-04-23T01:56:22.964Z,49.60
2019-04-23T01:58:44.029Z,49.80
2019-04-23T02:01:20.739Z,49.70
2019-04-23T02:03:52.273Z,49.80
2019-04-23T02:06:20.512Z,49.90
2019-04-23T02:11:13.169Z,49.80
2019-04-23T02:13:55.375Z,50.50
2019-04-23T02:16:21.013Z,49.80
2019-04-23T02:18:56.741Z,49.90
2019-04-23T02:21:39.953Z,49.90
2019-04-23T02:24:06.752Z,49.90
2019-04-23T02:31:44.537Z,50.00
2019-04-23T02:34:07.214Z,50.20
2019-04-23T02:36:22.756Z,49.90
2019-04-23T02:41:41.572Z,49.90
2019-04-23T02:44:09.124Z,49.80
2019-04-23T02:46:22.725Z,49.80
2019-04-23T02:49:06.401Z,49.70
2019-04-23T02:51:39.643Z,49.90
2019-04-23T03:06:29.877Z,50.00
2019-04-23T03:11:32.519Z,50.10
2019-04-23T03:14:03.719Z,50.00
2019-04-23T03:16:54.964Z,49.90
2019-04-23T03:19:21.817Z,49.90
2019-04-23T03:39:40.191Z,50.10
2019-04-23T03:42:02.553Z,50.10
2019-04-23T03:44:39.902Z,50.20
2019-04-23T03:47:16.284Z,50.30
2019-04-23T03:49:41.045Z,50.30
2019-04-23T03:52:14.041Z,50.30
2019-04-23T04:02:31.396Z,50.40
2019-04-23T04:04:45.273Z,50.50
2019-04-23T04:07:27.906Z,50.50
2019-04-23T04:09:47.918Z,50.60
2019-04-23T04:12:29.393Z,50.70
2019-04-23T04:14:57.585Z,50.80
2019-04-23T04:17:20.150Z,50.70
2019-04-23T04:20:01.513Z,50.70
2019-04-23T04:29:54.491Z,50.50
2019-04-23T04:32:15.023Z,50.30
2019-04-23T04:42:14.878Z,50.40
2019-04-23T04:47:36.193Z,50.30
2019-04-23T04:54:55.842Z,50.10
2019-04-23T05:10:25.180Z,49.50
2019-04-23T05:15:02.686Z,49.40
2019-04-23T05:17:42.187Z,48.90
2019-04-23T05:20:09.814Z,48.90
2019-04-23T05:22:40.811Z,49.00
2019-04-23T05:24:57.238Z,49.00
2019-04-23T05:27:37.285Z,48.60
2019-04-23T05:30:03.224Z,48.70
2019-04-23T05:32:27.076Z,48.40
2019-04-23T05:35:06.727Z,48.50
2019-04-23T05:37:40.479Z,48.30
2019-04-23T05:40:08.680Z,48.20
2019-04-23T05:42:26.549Z,48.10
2019-04-23T05:45:00.917Z,47.90
2019-04-23T05:47:29.263Z,47.70
2019-04-23T05:50:02.113Z,47.50
2019-04-23T05:52:29.765Z,47.60
2019-04-23T05:57:29.897Z,47.20
2019-04-23T05:59:54.721Z,47.10
2019-04-23T06:02:35.888Z,46.90
2019-04-23T06:04:59.142Z,47.00
2019-04-23T06:07:43.431Z,47.10
2019-04-23T06:09:59.443Z,46.90
2019-04-23T06:12:26.970Z,46.70
2019-04-23T06:14:57.559Z,46.40
2019-04-23T06:17:27.449Z,46.40
2019-04-23T06:20:04.318Z,43.90
2019-04-23T06:25:01.745Z,35.20
2019-04-23T06:27:27.343Z,30.90
2019-04-23T06:29:57.420Z,29.00
2019-04-23T06:34:58.181Z,26.60
2019-04-23T06:37:38.557Z,25.40
2019-04-23T06:44:58.447Z,23.50
2019-04-23T06:47:24.794Z,22.90
2019-04-23T06:49:55.546Z,22.80
2019-04-23T06:52:21.707Z,22.50
2019-04-23T06:57:27.003Z,21.40
2019-04-23T06:59:54.730Z,21.20
2019-04-23T07:02:26.166Z,21.30
2019-04-23T07:10:05.457Z,21.60
2019-04-23T07:12:44.795Z,21.80
2019-04-23T07:14:55.440Z,21.70
2019-04-23T07:17:25.061Z,21.20
2019-04-23T07:19:58.467Z,20.70
2019-04-23T07:22:23.215Z,20.10
2019-04-23T07:24:52.863Z,20.10
2019-04-23T07:27:24.689Z,20.00
2019-04-23T07:30:02.136Z,19.90
2019-04-23T07:32:23.692Z,19.60
2019-04-23T07:35:04.515Z,19.70
2019-04-23T07:37:22.332Z,20.10
2019-04-23T07:40:22.977Z,20.00
2019-04-23T07:42:31.024Z,19.80
2019-04-23T07:45:02.096Z,19.90
2019-04-23T07:48:02.055Z,19.70
2019-04-23T07:50:35.227Z,19.60
2019-04-23T07:53:01.938Z,19.30
2019-04-23T07:55:25.490Z,18.70
2019-04-23T07:58:00.728Z,18.40
2019-04-23T08:00:29.761Z,18.40
2019-04-23T08:02:57.856Z,18.40
2019-04-23T08:07:55.511Z,18.50
2019-04-23T08:10:29.458Z,18.40
2019-04-23T08:15:28.132Z,20.80
2019-04-23T08:17:53.045Z,22.90
2019-04-23T08:20:22.788Z,25.40
2019-04-23T08:22:53.764Z,27.70
2019-04-23T08:25:39.461Z,29.40
2019-04-23T08:28:12.091Z,30.70
2019-04-23T08:30:32.261Z,31.90
2019-04-23T08:33:04.282Z,32.20
2019-04-23T08:35:33.891Z,31.00
2019-04-23T08:40:33.786Z,26.60
2019-04-23T08:45:51.284Z,23.10
2019-04-23T08:50:44.087Z,21.10
2019-04-23T08:56:05.113Z,20.40
2019-04-23T08:58:25.514Z,20.50
2019-04-23T09:03:27.685Z,20.30
2019-04-23T09:05:57.650Z,20.40
2019-04-23T09:08:27.744Z,20.10
2019-04-23T09:11:04.650Z,19.70
2019-04-23T09:15:56.534Z,20.00
2019-04-23T09:20:58.081Z,20.00
2019-04-23T09:23:34.412Z,20.30
2019-04-23T09:28:38.687Z,19.60
2019-04-23T09:31:05.191Z,19.50
2019-04-23T09:34:00.049Z,19.30
2019-04-23T09:36:22.291Z,19.10
2019-04-23T09:39:06.136Z,19.50
2019-04-23T09:41:39.926Z,20.20
2019-04-23T09:47:07.075Z,19.30
2019-04-23T09:49:34.183Z,19.60
2019-04-23T09:52:11.175Z,19.80
2019-04-23T09:54:32.555Z,20.20
2019-04-23T09:56:57.057Z,20.50
2019-04-23T09:59:47.279Z,20.30
2019-04-23T10:01:50.154Z,19.90
2019-04-23T10:04:19.422Z,19.80
2019-04-23T10:06:38.741Z,20.00
2019-04-23T10:09:09.708Z,20.40
2019-04-23T10:11:37.372Z,20.40
2019-04-23T10:14:06.237Z,20.40
2019-04-23T10:16:35.102Z,20.80
2019-04-23T10:19:03.826Z,20.90
2019-04-23T10:21:33.313Z,20.60
2019-04-23T10:24:03.214Z,20.80
2019-04-23T10:26:32.456Z,21.40
2019-04-23T10:29:02.659Z,21.50
2019-04-23T10:31:31.597Z,21.20
2019-04-23T10:34:01.956Z,21.00
2019-04-23T10:36:32.148Z,20.90
2019-04-23T10:39:07.407Z,20.80
2019-04-23T10:41:31.000Z,20.80
2019-04-23T10:44:02.835Z,20.40
2019-04-23T10:46:53.063Z,20.40
2019-04-23T10:49:47.717Z,21.20
2019-04-23T10:52:07.116Z,21.60
2019-04-23T10:56:59.751Z,21.50
2019-04-23T11:02:29.753Z,21.20
2019-04-23T11:04:54.269Z,21.60
2019-04-23T11:07:25.252Z,22.00
2019-04-23T11:12:23.719Z,22.90
2019-04-23T11:14:53.098Z,23.40
2019-04-23T11:17:26.458Z,24.50
2019-04-23T11:20:18.175Z,25.50
2019-04-23T11:22:36.137Z,27.00
2019-04-23T11:24:50.620Z,28.40
2019-04-23T11:27:22.592Z,29.70
2019-04-23T11:29:55.350Z,30.50
2019-04-23T11:32:40.901Z,31.60
2019-04-23T11:35:05.060Z,32.20
2019-04-23T11:37:23.470Z,33.20
2019-04-23T11:39:49.591Z,34.10
2019-04-23T11:42:39.046Z,34.90
2019-04-23T11:44:59.815Z,35.50
2019-04-23T11:47:47.028Z,35.70
2019-04-23T11:52:30.056Z,36.10
2019-04-23T11:54:55.089Z,36.30
2019-04-23T11:57:29.966Z,36.40
2019-04-23T12:00:05.430Z,36.10
2019-04-23T12:02:38.636Z,35.90
2019-04-23T12:05:15.221Z,35.90
2019-04-23T12:07:42.211Z,36.00
2019-04-23T12:10:29.204Z,35.90
2019-04-23T12:12:54.159Z,36.00
2019-04-23T12:20:21.362Z,36.20
2019-04-23T12:22:58.747Z,36.20
2019-04-23T12:25:26.748Z,36.00
2019-04-23T12:27:42.224Z,35.40
2019-04-23T12:30:32.438Z,35.30
2019-04-23T12:37:53.830Z,35.00
2019-04-23T12:40:24.941Z,35.20
2019-04-23T12:45:33.865Z,36.30
2019-04-23T12:58:01.874Z,35.60
2019-04-23T13:00:30.923Z,35.60
2019-04-23T13:02:58.854Z,35.70
2019-04-23T13:05:30.756Z,35.60
2019-04-23T13:08:01.967Z,35.70
2019-04-23T13:13:11.456Z,35.20
2019-04-23T13:15:34.691Z,35.20
2019-04-23T13:18:03.857Z,35.40
2019-04-23T13:28:13.003Z,35.50
2019-04-23T13:34:04.213Z,35.30
2019-04-23T13:38:19.592Z,35.60
2019-04-23T13:43:25.733Z,36.00
2019-04-23T13:50:55.397Z,36.10
2019-04-23T13:53:19.801Z,36.20
2019-04-23T13:55:35.972Z,36.50
2019-04-23T14:01:00.912Z,36.20
2019-04-23T14:03:09.634Z,36.20
2019-04-23T14:05:57.405Z,36.10
2019-04-23T14:08:33.388Z,35.60
2019-04-23T14:11:11.610Z,35.10
2019-04-23T14:16:04.255Z,34.70
2019-04-23T14:20:57.534Z,34.70
2019-04-23T14:23:59.182Z,34.70
2019-04-23T14:26:10.910Z,34.50
2019-04-23T14:28:28.475Z,34.80
2019-04-23T14:33:32.563Z,35.50
2019-04-23T14:35:56.368Z,35.60
2019-04-23T14:41:05.995Z,35.90
2019-04-23T14:43:31.365Z,36.10
2019-04-23T14:46:23.059Z,36.20
2019-04-23T14:48:23.644Z,36.40
2019-04-23T14:51:00.577Z,36.40
2019-04-23T14:53:40.540Z,36.30
2019-04-23T15:01:27.229Z,35.40
2019-04-23T15:03:44.535Z,35.50
2019-04-23T15:13:39.290Z,36.50
2019-04-23T15:18:53.039Z,36.60
2019-04-23T15:28:27.057Z,35.70
2019-04-23T15:31:46.635Z,35.50
2019-04-23T15:34:09.199Z,35.50
2019-04-23T15:39:02.335Z,36.00
2019-04-23T15:41:27.475Z,37.10
2019-04-23T15:43:52.268Z,37.20
2019-04-23T15:46:20.162Z,36.70
2019-04-23T15:48:57.547Z,36.90
2019-04-23T15:53:41.031Z,37.20
2019-04-23T15:56:33.942Z,37.10
2019-04-23T15:58:58.228Z,37.40
2019-04-23T16:03:21.635Z,37.60
2019-04-23T16:05:57.497Z,37.70
2019-04-23T16:09:02.744Z,37.70
2019-04-23T16:11:41.329Z,37.60
2019-04-23T16:14:10.216Z,37.60
2019-04-23T16:16:34.350Z,37.50
2019-04-23T16:19:07.651Z,38.40
2019-04-23T16:21:43.638Z,38.00
2019-04-23T16:24:06.021Z,38.20
2019-04-23T16:31:34.585Z,38.80
2019-04-23T16:36:43.890Z,39.00
2019-04-23T16:39:15.087Z,39.10
2019-04-23T16:44:24.179Z,39.70
2019-04-23T16:46:49.728Z,39.50
2019-04-23T16:49:17.855Z,39.70
2019-04-23T16:54:24.645Z,41.80
2019-04-23T17:00:02.809Z,42.20
2019-04-23T17:02:40.578Z,43.30
2019-04-23T17:04:47.258Z,42.80
2019-04-23T17:07:07.096Z,44.10
2019-04-23T17:09:54.228Z,47.20
2019-04-23T17:12:15.026Z,47.90
2019-04-23T17:14:50.194Z,48.80
2019-04-23T17:17:34.495Z,49.80
2019-04-23T17:20:10.794Z,48.70
2019-04-23T17:22:39.075Z,49.10
2019-04-23T17:25:15.970Z,49.00
2019-04-23T17:27:39.090Z,49.00
2019-04-23T17:30:11.517Z,50.30
2019-04-23T17:33:04.323Z,49.10
2019-04-23T17:35:24.305Z,48.60
2019-04-23T17:38:14.873Z,47.50
2019-04-23T17:40:23.322Z,47.80
2019-04-23T17:43:01.268Z,45.90
2019-04-23T17:45:32.228Z,46.60
2019-04-23T17:48:12.951Z,45.90
2019-04-23T17:50:43.965Z,46.10
2019-04-23T17:53:11.435Z,45.80
2019-04-23T17:55:48.383Z,45.80
2019-04-23T17:58:19.488Z,45.00
2019-04-23T18:03:18.078Z,44.90
2019-04-23T18:05:40.813Z,44.60
2019-04-23T18:08:12.510Z,44.30
2019-04-23T18:10:49.457Z,44.40
2019-04-23T18:13:17.214Z,44.10
2019-04-23T18:15:46.328Z,44.00
2019-04-23T18:18:10.244Z,44.00
2019-04-23T18:21:04.738Z,44.00
2019-04-23T18:23:22.176Z,43.90
2019-04-23T18:26:15.722Z,43.90
2019-04-23T18:28:50.168Z,44.10
2019-04-23T18:31:12.920Z,44.40
2019-04-23T18:36:26.150Z,44.90
2019-04-23T18:38:59.251Z,45.40
2019-04-23T18:41:27.259Z,45.90
2019-04-23T18:44:02.886Z,46.40
2019-04-23T18:48:52.840Z,46.90
2019-04-23T18:51:34.476Z,47.00
2019-04-23T18:53:52.527Z,47.30
2019-04-23T18:56:55.835Z,48.10
2019-04-23T18:59:00.880Z,47.40
2019-04-23T19:01:30.980Z,46.90
2019-04-23T19:04:09.771Z,47.50
2019-04-23T19:09:16.324Z,47.50
2019-04-23T19:14:30.723Z,47.30
2019-04-23T19:19:24.465Z,46.80
2019-04-23T19:24:15.863Z,46.50
2019-04-23T19:29:21.821Z,46.80
2019-04-23T19:31:55.324Z,47.10
2019-04-23T19:34:36.276Z,47.00
2019-04-23T19:36:59.232Z,47.20
2019-04-23T19:39:26.368Z,47.30
2019-04-23T19:42:00.608Z,47.30
2019-04-23T19:44:25.004Z,47.30
2019-04-23T19:49:29.592Z,47.40
2019-04-23T19:54:37.870Z,47.50
2019-04-23T19:56:56.792Z,47.50
2019-04-23T19:59:31.726Z,47.50
2019-04-23T20:02:00.459Z,47.50
2019-04-23T20:04:28.862Z,47.30
2019-04-23T20:11:54.774Z,47.00
2019-04-23T20:14:26.223Z,47.00
2019-04-23T20:19:30.152Z,46.80
2019-04-23T20:24:52.616Z,46.80
2019-04-23T20:31:54.695Z,47.00
2019-04-23T20:34:49.613Z,46.80
2019-04-23T20:37:13.907Z,46.70
2019-04-23T20:39:39.683Z,46.70
2019-04-23T20:42:12.385Z,46.50
2019-04-23T20:49:42.857Z,46.20
2019-04-23T20:52:04.772Z,46.20
2019-04-23T20:57:31.805Z,46.10
2019-04-23T20:59:57.252Z,46.10
2019-04-23T21:05:06.738Z,45.90
2019-04-23T21:07:42.020Z,45.60
2019-04-23T21:10:12.547Z,45.70
2019-04-23T21:12:57.819Z,45.50
2019-04-23T21:17:35.352Z,45.30
2019-04-23T21:20:08.581Z,45.00
2019-04-23T21:22:51.043Z,44.80
2019-04-23T21:25:00.273Z,44.70
2019-04-23T21:35:07.734Z,43.60
2019-04-23T21:38:00.754Z,44.30
2019-04-23T21:40:42.462Z,44.10
2019-04-23T21:42:57.627Z,44.20
2019-04-23T21:45:28.574Z,44.20
2019-04-23T21:48:03.180Z,44.10
2019-04-23T21:50:30.162Z,44.10
2019-04-23T21:52:54.887Z,44.20
2019-04-23T21:55:39.063Z,44.10
2019-04-23T22:00:39.357Z,44.20
2019-04-23T22:03:13.389Z,44.20
2019-04-23T22:05:32.577Z,44.20
2019-04-23T22:08:05.734Z,44.20
2019-04-23T22:10:25.633Z,44.30
2019-04-23T22:15:43.179Z,44.10
2019-04-23T22:23:03.790Z,44.30
2019-04-23T22:25:31.946Z,44.40
2019-04-23T22:30:33.924Z,44.70
2019-04-23T22:33:02.846Z,44.80
2019-04-23T22:35:20.348Z,44.80
2019-04-23T22:38:09.650Z,44.70
2019-04-23T22:40:27.858Z,44.80
2019-04-23T22:45:26.568Z,44.70
2019-04-23T22:50:38.562Z,44.80
2019-04-23T22:55:23.094Z,44.80
2019-04-23T23:05:53.033Z,44.80
2019-04-23T23:10:28.114Z,44.70
2019-04-23T23:13:04.167Z,44.70
2019-04-23T23:15:37.168Z,44.60
2019-04-23T23:18:07.204Z,44.40
2019-04-23T23:20:33.145Z,44.30
2019-04-23T23:28:06.845Z,43.80
2019-04-23T23:30:38.184Z,43.90
2019-04-23T23:33:03.711Z,43.80
2019-04-23T23:35:48.877Z,43.70
2019-04-23T23:38:03.874Z,43.70
2019-04-23T23:40:35.575Z,43.60
2019-04-23T23:43:17.891Z,43.70
2019-04-23T23:47:59.555Z,43.70
2019-04-23T23:53:02.484Z,43.80
2019-04-23T23:55:31.934Z,43.80
2019-04-23T23:58:10.740Z,43.60
